Time;durP1;ratioP1;P1;durP2;ratioP2;P2;SDS_P1;SDS_P2;PMS_P1;PMS_P2;Temp;Humidity;BMP_temperature;BMP_pressure;BME280_temperature;BME280_humidity;BME280_pressure;Samples;Min_cycle;Max_cycle;Signal;HPM_P1;HPM_P2
2021/09/12 00:01:55;;;;;;;;;16.75;16.75;;;;;21.72;47.07;101354.22;5080696;27;45624;-53
2021/09/12 00:04:21;;;;;;;;;18.00;16.00;;;;;21.73;47.35;101345.16;5069453;28;45640;-52
2021/09/12 00:06:47;;;;;;;;;19.75;18.00;;;;;21.76;46.95;101348.66;5056273;28;48293;-52
2021/09/12 00:09:13;;;;;;;;;16.75;16.75;;;;;21.77;47.28;101345.84;5076608;27;45493;-53
2021/09/12 00:11:38;;;;;;;;;19.00;18.00;;;;;21.80;47.41;101353.75;5079839;28;45936;-52
2021/09/12 00:14:04;;;;;;;;;17.50;15.75;;;;;21.81;47.42;101346.53;5062425;28;45721;-50
2021/09/12 00:16:29;;;;;;;;;14.50;12.75;;;;;21.84;46.70;101359.84;5078638;28;48454;-51
2021/09/12 00:18:55;;;;;;;;;13.50;11.50;;;;;21.84;47.08;101349.91;5080007;27;45600;-51
2021/09/12 00:21:20;;;;;;;;;13.25;13.25;;;;;21.86;47.06;101348.03;5074876;28;45682;-53
2021/09/12 00:23:46;;;;;;;;;11.75;11.50;;;;;21.90;46.67;101351.41;5080534;28;45536;-52
2021/09/12 00:26:11;;;;;;;;;15.75;14.75;;;;;21.88;47.15;101345.22;5076716;27;46848;-49
2021/09/12 00:28:37;;;;;;;;;16.75;16.75;;;;;21.89;46.99;101346.97;5080355;27;45597;-52
2021/09/12 00:31:02;;;;;;;;;17.25;15.75;;;;;21.89;46.76;101349.66;5077887;27;45291;-52
2021/09/12 00:33:31;;;;;;;;;14.75;14.75;;;;;21.91;46.62;101350.44;5080189;27;45331;-53
2021/09/12 00:35:57;;;;;;;;;15.75;15.75;;;;;21.92;46.83;101342.25;5074671;27;46418;-53
2021/09/12 00:38:22;;;;;;;;;17.25;16.00;;;;;21.91;46.91;101345.91;5082302;27;45689;-52
2021/09/12 00:40:48;;;;;;;;;20.75;17.75;;;;;21.93;47.26;101349.38;5077607;27;45320;-51
2021/09/12 00:43:13;;;;;;;;;18.75;16.75;;;;;21.95;47.27;101347.44;5079745;28;45553;-51
2021/09/12 00:45:39;;;;;;;;;16.25;14.25;;;;;21.94;47.17;101345.72;5075594;28;47123;-50
2021/09/12 00:48:06;;;;;;;;;16.50;16.00;;;;;21.93;46.82;101343.97;5061220;28;45858;-53
2021/09/12 00:50:32;;;;;;;;;14.50;14.50;;;;;21.95;47.29;101343.88;5076743;27;45685;-51
2021/09/12 00:53:02;;;;;;;;;18.25;17.25;;;;;21.95;47.38;101343.88;5069031;28;45760;-48
2021/09/12 00:55:29;;;;;;;;;18.50;17.25;;;;;21.96;47.16;101345.63;5077069;27;48291;-51
2021/09/12 00:57:56;;;;;;;;;16.75;16.75;;;;;21.96;47.25;101342.91;5060809;28;45685;-53
2021/09/12 01:00:21;;;;;;;;;17.25;16.00;;;;;21.96;47.63;101342.91;5050850;28;45471;-53
2021/09/12 01:02:47;;;;;;;;;17.25;17.25;;;;;21.95;47.76;101338.47;5060976;28;45360;-52
2021/09/12 01:05:12;;;;;;;;;18.75;14.00;;;;;21.92;47.55;101344.94;5077149;27;47473;-50
2021/09/12 01:07:40;;;;;;;;;17.25;16.50;;;;;21.89;47.62;101337.03;5075518;27;45334;-52
2021/09/12 01:10:08;;;;;;;;;19.25;17.50;;;;;21.88;48.02;101339.81;5079063;28;45590;-52
2021/09/12 01:12:35;;;;;;;;;17.50;16.00;;;;;21.84;48.10;101341.81;5078177;27;45412;-53
2021/09/12 01:15:01;;;;;;;;;15.50;14.75;;;;;21.79;48.05;101327.72;5074112;27;47314;-52
2021/09/12 01:17:28;;;;;;;;;15.25;14.50;;;;;21.79;48.06;101333.13;5076553;27;45595;-51
2021/09/12 01:19:54;;;;;;;;;18.25;17.75;;;;;21.80;47.92;101331.28;5075485;28;45509;-51
2021/09/12 01:22:20;;;;;;;;;18.75;16.25;;;;;21.77;48.09;101324.25;5060184;28;45526;-52
2021/09/12 01:24:46;;;;;;;;;14.50;14.50;;;;;21.77;48.18;101323.38;5075666;27;47144;-52
2021/09/12 01:27:11;;;;;;;;;16.50;14.75;;;;;21.75;48.50;101323.47;5083981;27;45574;-53
2021/09/12 01:29:37;;;;;;;;;14.00;14.00;;;;;21.75;47.89;101323.47;5078839;27;45357;-52
2021/09/12 01:32:03;;;;;;;;;13.00;13.00;;;;;21.75;48.33;101323.47;5082682;27;45515;-53
2021/09/12 01:34:28;;;;;;;;;14.00;13.50;;;;;21.75;48.33;101318.06;5078327;28;48441;-52
2021/09/12 01:36:54;;;;;;;;;13.25;12.75;;;;;21.73;47.84;101318.16;5059923;28;45712;-52
2021/09/12 01:39:19;;;;;;;;;14.50;14.50;;;;;21.73;48.36;101323.56;5069976;27;45700;-52
2021/09/12 01:41:45;;;;;;;;;15.25;14.25;;;;;21.72;48.45;101323.63;5068739;28;45314;-53
2021/09/12 01:44:11;;;;;;;;;12.00;12.00;;;;;21.70;47.74;101321.00;5075681;28;47968;-53
2021/09/12 01:46:45;;;;;;;;;12.00;12.00;;;;;21.67;48.14;101323.91;5078217;28;46017;-50
2021/09/12 01:49:11;;;;;;;;;15.50;13.00;;;;;21.67;48.18;101328.44;5066570;27;45680;-51
2021/09/12 01:51:37;;;;;;;;;8.75;8.50;;;;;21.66;47.62;101321.28;5077816;27;45401;-53
2021/09/12 01:54:02;;;;;;;;;9.75;9.75;;;;;21.64;47.58;101321.38;5077740;27;47390;-53
2021/09/12 01:56:28;;;;;;;;;11.00;9.75;;;;;21.63;48.20;101316.06;5075197;28;45271;-52
2021/09/12 01:58:53;;;;;;;;;9.75;8.00;;;;;21.61;47.70;101316.16;5070338;28;45420;-53
2021/09/12 02:01:19;;;;;;;;;7.50;7.50;;;;;21.58;47.97;101310.91;5070435;28;45456;-52
2021/09/12 02:03:46;;;;;;;;;10.75;8.25;;;;;21.57;48.09;101314.56;5078128;28;47277;-52
2021/09/12 02:06:12;;;;;;;;;10.25;9.50;;;;;21.57;48.33;101319.13;5066494;28;45964;-53
2021/09/12 02:08:37;;;;;;;;;8.25;8.25;;;;;21.56;47.88;101320.94;5086226;27;45322;-51
2021/09/12 02:11:03;;;;;;;;;8.75;8.75;;;;;21.55;48.07;101321.91;5077932;28;45639;-52
2021/09/12 02:13:28;;;;;;;;;8.25;8.25;;;;;21.53;48.30;101321.13;5070862;28;47354;-50
2021/09/12 02:15:54;;;;;;;;;9.50;9.25;;;;;21.53;47.87;101320.25;5070830;27;45530;-52
2021/09/12 02:18:19;;;;;;;;;9.25;9.25;;;;;21.50;48.20;101324.00;5055336;28;45338;-52
2021/09/12 02:20:45;;;;;;;;;9.00;9.00;;;;;21.50;48.08;101325.84;5077908;27;45670;-53
2021/09/12 02:23:10;;;;;;;;;8.75;8.25;;;;;21.47;48.36;101326.00;5075586;28;47170;-50
2021/09/12 02:25:36;;;;;;;;;7.50;7.25;;;;;21.45;48.29;101326.09;5074863;27;45670;-52
2021/09/12 02:28:03;;;;;;;;;7.50;7.50;;;;;21.46;48.55;101335.94;5079826;27;45476;-53
2021/09/12 02:30:28;;;;;;;;;12.25;10.00;;;;;21.48;48.36;101335.88;5071761;27;45699;-54
2021/09/12 02:32:54;;;;;;;;;9.25;9.00;;;;;21.47;48.42;101336.78;5077262;28;47388;-51
2021/09/12 02:35:20;;;;;;;;;9.00;9.00;;;;;21.43;48.71;101333.41;5066664;28;46102;-52
2021/09/12 02:37:45;;;;;;;;;7.33;7.00;;;;;21.40;48.27;101341.69;5076130;27;45467;-50
2021/09/12 02:40:12;;;;;;;;;8.00;7.25;;;;;21.38;48.23;101336.38;5077318;28;45463;-53
2021/09/12 02:42:38;;;;;;;;;7.25;7.25;;;;;21.39;48.52;101339.97;5044376;28;47488;-53
2021/09/12 02:45:08;;;;;;;;;8.25;7.00;;;;;21.36;48.10;101335.59;5070628;28;45314;-51
2021/09/12 02:47:34;;;;;;;;;7.00;7.00;;;;;21.35;48.33;101338.41;5076900;27;45343;-53
2021/09/12 02:50:00;;;;;;;;;9.50;8.50;;;;;21.33;48.61;101335.75;5077067;28;45467;-52
2021/09/12 02:52:25;;;;;;;;;6.25;5.75;;;;;21.33;48.83;101330.34;5061128;28;47006;-50
2021/09/12 02:54:50;;;;;;;;;7.25;7.25;;;;;21.33;48.35;101329.47;5075539;27;45556;-54
2021/09/12 02:57:16;;;;;;;;;8.25;7.75;;;;;21.31;48.38;101326.00;5070605;28;45307;-52
2021/09/12 02:59:41;;;;;;;;;9.67;8.00;;;;;21.29;48.22;101328.78;5077301;28;45423;-52
2021/09/12 03:02:07;;;;;;;;;7.33;7.33;;;;;21.26;48.27;101330.81;5075692;27;48000;-51
2021/09/12 03:04:32;;;;;;;;;7.67;7.00;;;;;21.23;48.92;101329.13;5071476;28;45695;-54
2021/09/12 03:06:58;;;;;;;;;10.00;8.33;;;;;21.21;48.83;101324.75;5076960;28;45684;-49
2021/09/12 03:09:23;;;;;;;;;6.67;6.67;;;;;21.18;48.46;101323.09;5077045;27;45713;-54
2021/09/12 03:11:51;;;;;;;;;6.67;6.67;;;;;21.14;49.02;101329.63;5072131;28;47056;-51
2021/09/12 03:14:20;;;;;;;;;8.67;7.67;;;;;21.10;49.34;101320.84;5074975;28;45322;-50
2021/09/12 03:16:48;;;;;;;;;9.00;8.00;;;;;21.09;49.29;101320.94;5076260;28;45236;-51
2021/09/12 03:19:15;;;;;;;;;8.00;7.67;;;;;21.07;49.08;101321.00;5078056;28;45513;-52
2021/09/12 03:21:42;;;;;;;;;9.00;9.00;;;;;21.06;49.29;101321.09;5078757;27;47385;-53
2021/09/12 03:24:07;;;;;;;;;10.75;10.50;;;;;21.03;49.94;101323.97;5078862;28;45774;-50
2021/09/12 03:26:33;;;;;;;;;12.50;11.75;;;;;21.02;49.94;101319.53;5058541;28;45518;-55
2021/09/12 03:28:58;;;;;;;;;8.67;8.67;;;;;21.00;49.56;101322.31;5078095;27;45373;-53
2021/09/12 03:31:24;;;;;;;;;13.75;12.75;;;;;20.99;49.86;101319.69;5080911;27;47199;-52
2021/09/12 03:33:49;;;;;;;;;11.25;11.25;;;;;20.97;49.53;101327.88;5058845;28;45292;-52
2021/09/12 03:36:15;;;;;;;;;11.25;11.25;;;;;20.96;50.06;101325.25;5081180;28;45546;-54
2021/09/12 03:38:40;;;;;;;;;10.67;10.00;;;;;20.95;50.05;101327.06;5066109;28;45505;-51
2021/09/12 03:41:06;;;;;;;;;12.00;12.00;;;;;20.92;50.29;101321.84;5082770;27;47997;-54
2021/09/12 03:43:31;;;;;;;;;12.00;12.00;;;;;20.91;50.40;101322.81;5079706;28;45762;-53
2021/09/12 03:45:57;;;;;;;;;11.25;10.00;;;;;20.86;49.83;101323.06;5072717;27;45861;-50
2021/09/12 03:48:24;;;;;;;;;12.25;12.00;;;;;20.82;50.14;101318.78;5078510;28;45544;-51
2021/09/12 03:50:50;;;;;;;;;11.75;11.75;;;;;20.80;50.64;101325.22;5075408;28;47232;-53
2021/09/12 03:53:15;;;;;;;;;10.33;9.33;;;;;20.77;50.64;101325.41;5060349;28;45441;-53
2021/09/12 03:55:41;;;;;;;;;12.00;9.75;;;;;20.72;50.74;101314.88;5075064;28;45405;-52
2021/09/12 03:58:06;;;;;;;;;11.00;11.00;;;;;20.70;50.60;101322.16;5075455;27;45542;-50
2021/09/12 04:00:32;;;;;;;;;10.00;10.00;;;;;20.68;50.55;101318.66;5079471;28;45659;-51
2021/09/12 04:02:57;;;;;;;;;12.50;10.50;;;;;20.68;50.68;101318.66;5080092;27;45578;-51
2021/09/12 04:05:23;;;;;;;;;10.00;9.00;;;;;20.66;50.65;101319.72;5081087;28;45308;-51
2021/09/12 04:07:48;;;;;;;;;11.33;10.67;;;;;20.62;51.05;101313.63;5082839;27;45452;-51
2021/09/12 04:10:14;;;;;;;;;11.33;10.67;;;;;20.60;50.63;101307.44;5081739;27;45561;-51
2021/09/12 04:12:40;;;;;;;;;9.67;9.00;;;;;20.54;50.65;101308.63;5080009;28;45368;-54
2021/09/12 04:15:06;;;;;;;;;8.67;8.67;;;;;20.52;51.06;101315.06;5080668;28;45297;-51
2021/09/12 04:17:32;;;;;;;;;11.33;10.00;;;;;20.48;51.37;101311.66;5062065;28;45444;-53
2021/09/12 04:19:57;;;;;;;;;10.33;10.00;;;;;20.44;51.42;101301.97;5079969;27;45435;-53
2021/09/12 04:22:23;;;;;;;;;12.25;12.25;;;;;20.42;51.32;101301.19;5061863;28;45667;-53
2021/09/12 04:24:48;;;;;;;;;9.67;9.00;;;;;20.40;51.34;101307.59;5079950;28;45315;-53
2021/09/12 04:27:15;;;;;;;;;12.00;12.00;;;;;20.37;51.54;101305.06;5088367;27;45824;-54
2021/09/12 04:29:41;;;;;;;;;11.75;11.00;;;;;20.34;51.41;101307.94;5072342;28;45486;-53
2021/09/12 04:32:08;;;;;;;;;12.00;11.00;;;;;20.32;51.35;101301.72;5061222;28;45905;-54
2021/09/12 04:34:33;;;;;;;;;11.75;9.00;;;;;20.32;51.93;101304.41;5061974;28;45330;-54
2021/09/12 04:36:59;;;;;;;;;10.67;9.67;;;;;20.29;51.67;101309.03;5078258;28;45243;-51
2021/09/12 04:39:24;;;;;;;;;10.00;10.00;;;;;20.29;52.07;101310.84;5084011;27;47259;-52
2021/09/12 04:41:50;;;;;;;;;11.33;11.33;;;;;20.26;51.83;101319.09;5078786;28;45479;-52
2021/09/12 04:44:16;;;;;;;;;12.25;12.25;;;;;20.25;52.09;101311.97;5061625;28;45636;-51
2021/09/12 04:46:41;;;;;;;;;11.75;11.75;;;;;20.22;51.86;101312.13;5079455;28;45398;-53
2021/09/12 04:49:07;;;;;;;;;13.33;13.33;;;;;20.18;52.42;101308.72;5079445;27;46939;-52
2021/09/12 04:51:32;;;;;;;;;10.25;9.25;;;;;20.13;52.04;101313.47;5061204;28;45484;-54
2021/09/12 04:53:58;;;;;;;;;10.75;10.75;;;;;20.10;52.12;101313.66;5061311;28;45844;-51
2021/09/12 04:56:23;;;;;;;;;10.00;10.00;;;;;20.07;52.25;101319.16;5079768;28;45374;-51
2021/09/12 04:58:49;;;;;;;;;9.50;9.50;;;;;20.07;52.05;101318.31;5079184;28;47469;-51
2021/09/12 05:01:15;;;;;;;;;11.50;9.50;;;;;20.05;52.49;101315.69;5071494;27;45712;-54
2021/09/12 05:03:41;;;;;;;;;11.25;9.75;;;;;20.05;52.53;101312.13;5078128;28;45512;-53
2021/09/12 05:06:06;;;;;;;;;10.50;10.50;;;;;20.04;52.56;101313.94;5079145;28;45322;-49
2021/09/12 05:08:32;;;;;;;;;11.25;11.25;;;;;20.03;52.32;101319.41;5084069;27;47330;-52
2021/09/12 05:10:57;;;;;;;;;10.25;10.25;;;;;20.02;52.24;101317.69;5059874;28;45808;-52
2021/09/12 05:13:23;;;;;;;;;11.25;10.25;;;;;20.02;52.42;101323.06;5078814;28;45384;-53
2021/09/12 05:15:49;;;;;;;;;10.00;9.00;;;;;20.02;52.24;101323.06;5079361;27;45400;-54
2021/09/12 05:18:15;;;;;;;;;10.25;10.25;;;;;19.98;52.47;101315.16;5078699;28;48200;-54
2021/09/12 05:20:41;;;;;;;;;10.00;10.00;;;;;19.97;52.65;101321.50;5078559;28;45994;-54
2021/09/12 05:23:06;;;;;;;;;12.50;12.50;;;;;19.95;52.53;101312.63;5078848;28;45380;-54
2021/09/12 05:25:32;;;;;;;;;13.00;11.00;;;;;19.90;52.28;101308.41;5060983;27;45439;-53
2021/09/12 05:27:58;;;;;;;;;13.00;12.25;;;;;19.88;52.70;101310.31;5078743;27;48125;-51
2021/09/12 05:30:24;;;;;;;;;8.00;8.00;;;;;19.87;52.69;101309.44;5076872;28;45402;-53
2021/09/12 05:32:49;;;;;;;;;12.50;12.00;;;;;19.87;53.12;101305.88;5085603;27;45654;-54
2021/09/12 05:35:15;;;;;;;;;14.00;11.75;;;;;19.88;52.71;101313.88;5078668;27;45471;-52
2021/09/12 05:37:42;;;;;;;;;10.50;9.25;;;;;19.90;53.02;101306.56;5083097;27;47316;-52
2021/09/12 05:40:08;;;;;;;;;13.00;13.00;;;;;19.91;52.87;101308.31;5077099;27;45343;-52
2021/09/12 05:42:34;;;;;;;;;13.50;13.50;;;;;19.93;52.38;101316.31;5078634;28;45588;-53
2021/09/12 05:44:59;;;;;;;;;16.25;14.00;;;;;19.93;53.00;101314.50;5078284;28;45568;-54
2021/09/12 05:47:25;;;;;;;;;11.50;11.50;;;;;19.94;52.53;101318.06;5078060;27;46188;-51
2021/09/12 05:49:50;;;;;;;;;15.75;13.75;;;;;19.95;52.93;101320.69;5078291;27;45825;-53
2021/09/12 05:52:16;;;;;;;;;16.75;16.00;;;;;19.94;52.59;101316.22;5060589;28;45303;-53
2021/09/12 05:54:42;;;;;;;;;13.00;13.00;;;;;19.95;52.71;101325.22;5078321;28;45249;-51
2021/09/12 05:57:07;;;;;;;;;14.50;13.00;;;;;19.95;53.25;101317.13;5077795;28;45386;-54
2021/09/12 05:59:33;;;;;;;;;13.25;12.25;;;;;19.95;53.01;101319.84;5058664;28;45415;-51
2021/09/12 06:01:58;;;;;;;;;15.00;14.50;;;;;19.94;52.85;101318.06;5060123;28;46009;-54
2021/09/12 06:04:24;;;;;;;;;15.25;14.25;;;;;19.96;52.63;101324.28;5078037;28;45890;-53
2021/09/12 06:06:49;;;;;;;;;12.25;11.50;;;;;19.97;53.14;101323.31;5077759;28;48116;-51
2021/09/12 06:09:15;;;;;;;;;14.75;14.00;;;;;19.98;53.04;101325.94;5071089;28;45668;-52
2021/09/12 06:11:41;;;;;;;;;11.50;11.50;;;;;20.00;52.94;101333.94;5077536;27;45480;-51
2021/09/12 06:14:07;;;;;;;;;11.00;11.00;;;;;20.01;52.80;101335.66;5078108;28;45437;-53
2021/09/12 06:16:33;;;;;;;;;17.25;16.25;;;;;20.02;53.08;101328.44;5060033;28;47152;-54
2021/09/12 06:18:58;;;;;;;;;12.25;11.75;;;;;20.03;53.17;101333.75;5051071;28;46162;-52
2021/09/12 06:21:24;;;;;;;;;15.00;13.25;;;;;20.05;53.12;101336.38;5078275;28;45424;-53
2021/09/12 06:23:49;;;;;;;;;16.25;15.25;;;;;20.07;53.16;101334.47;5078157;27;45435;-54
2021/09/12 06:26:15;;;;;;;;;15.25;15.25;;;;;20.09;52.90;101337.97;5060067;28;47940;-53
2021/09/12 06:28:41;;;;;;;;;13.50;13.50;;;;;20.10;53.16;101342.41;5060692;28;45803;-53
2021/09/12 06:31:06;;;;;;;;;12.75;12.75;;;;;20.10;52.73;101339.72;5062107;27;47830;-53
2021/09/12 06:33:32;;;;;;;;;15.50;13.00;;;;;20.08;53.42;101339.81;5054290;27;45602;-54
2021/09/12 06:35:57;;;;;;;;;14.00;12.50;;;;;20.09;53.16;101341.53;5065482;27;47100;-54
2021/09/12 06:38:23;;;;;;;;;13.75;13.75;;;;;20.08;53.40;101339.81;5065195;27;45808;-54
2021/09/12 06:40:48;;;;;;;;;16.25;14.50;;;;;20.10;53.59;101342.41;5067165;27;45788;-52
2021/09/12 06:43:14;;;;;;;;;13.25;13.00;;;;;20.10;53.36;101342.41;5045506;28;45645;-54
2021/09/12 06:45:39;;;;;;;;;19.50;19.50;;;;;20.12;53.11;101344.06;5065126;27;45522;-50
2021/09/12 06:48:05;;;;;;;;;18.75;15.50;;;;;20.15;53.52;101343.03;5047295;28;45995;-55
2021/09/12 06:50:30;;;;;;;;;15.50;15.50;;;;;20.15;53.28;101341.22;5068001;28;45422;-52
2021/09/12 06:52:56;;;;;;;;;16.75;16.75;;;;;20.17;53.60;101335.75;5078505;27;45453;-55
2021/09/12 06:55:21;;;;;;;;;14.00;13.75;;;;;20.18;53.51;101332.97;5069780;27;47568;-53
2021/09/12 06:57:47;;;;;;;;;18.50;18.50;;;;;20.20;53.59;101339.19;5072017;27;45482;-51
2021/09/12 07:00:12;;;;;;;;;17.75;16.00;;;;;20.22;53.13;101339.09;5071243;27;45298;-52
2021/09/12 07:02:39;;;;;;;;;19.00;18.25;;;;;20.23;53.03;101339.00;5074490;27;45666;-49
2021/09/12 07:05:07;;;;;;;;;17.50;16.75;;;;;20.24;53.24;101335.34;5068876;28;47375;-52
2021/09/12 07:07:34;;;;;;;;;14.75;14.75;;;;;20.23;52.92;101330.06;5069750;27;45500;-53
2021/09/12 07:09:59;;;;;;;;;15.50;14.50;;;;;20.20;52.88;101327.50;5070676;27;45556;-55
2021/09/12 07:12:25;;;;;;;;;19.50;16.75;;;;;20.19;52.93;101332.00;5073823;27;45342;-53
2021/09/12 07:14:51;;;;;;;;;17.00;15.75;;;;;20.21;53.21;101330.13;5066376;27;48310;-54
2021/09/12 07:17:16;;;;;;;;;16.00;16.00;;;;;20.22;53.07;101334.56;5075544;27;45424;-53
2021/09/12 07:19:42;;;;;;;;;18.00;15.25;;;;;20.24;53.08;101332.66;5071671;28;45485;-53
2021/09/12 07:22:08;;;;;;;;;13.25;13.25;;;;;20.25;52.83;101334.41;5069901;27;45452;-51
2021/09/12 07:24:34;;;;;;;;;18.00;18.00;;;;;20.24;53.06;101338.06;5075814;27;47138;-53
2021/09/12 07:26:59;;;;;;;;;14.25;12.75;;;;;20.23;53.51;101340.84;5060830;27;45605;-53
2021/09/12 07:29:25;;;;;;;;;17.25;16.00;;;;;20.25;53.23;101338.91;5067472;27;45457;-54
2021/09/12 07:31:51;;;;;;;;;17.00;17.00;;;;;20.29;52.84;101340.50;5045864;27;45562;-52
2021/09/12 07:34:17;;;;;;;;;14.50;14.00;;;;;20.32;53.30;101339.47;5071777;27;47443;-53
2021/09/12 07:36:43;;;;;;;;;16.25;15.50;;;;;20.35;52.99;101345.59;5079409;27;45417;-53
2021/09/12 07:39:08;;;;;;;;;18.50;16.75;;;;;20.42;52.94;101343.44;5074268;27;45434;-52
2021/09/12 07:41:34;;;;;;;;;16.00;15.75;;;;;20.47;53.24;101331.50;5072962;27;45406;-50
2021/09/12 07:43:59;;;;;;;;;15.75;14.25;;;;;20.52;53.10;101333.94;5066529;27;47228;-52
2021/09/12 07:46:25;;;;;;;;;18.75;17.75;;;;;20.57;53.02;101330.03;5073653;27;45505;-53
2021/09/12 07:48:50;;;;;;;;;12.75;11.50;;;;;20.63;52.60;101336.94;5070076;27;45997;-50
2021/09/12 07:51:16;;;;;;;;;18.00;16.25;;;;;20.67;52.90;101341.19;5072414;27;45617;-54
2021/09/12 07:53:42;;;;;;;;;13.75;13.75;;;;;20.73;52.76;101343.56;5062323;28;47433;-52
2021/09/12 07:56:07;;;;;;;;;16.00;13.67;;;;;20.78;52.12;101340.63;5069983;27;45812;-51
2021/09/12 07:58:33;;;;;;;;;13.50;13.25;;;;;20.83;52.50;101342.13;5069631;27;45315;-52
2021/09/12 08:00:58;;;;;;;;;16.25;15.25;;;;;20.87;52.29;101337.44;5071370;27;45710;-55
2021/09/12 08:03:23;;;;;;;;;14.50;14.50;;;;;20.85;51.83;101337.53;5070135;27;48189;-53
2021/09/12 08:05:49;;;;;;;;;13.75;13.75;;;;;20.84;52.11;101343.88;5072981;27;45570;-53
2021/09/12 08:08:15;;;;;;;;;14.75;14.75;;;;;20.85;51.80;101340.22;5080224;27;45613;-54
2021/09/12 08:10:40;;;;;;;;;13.67;13.00;;;;;20.90;52.10;101337.25;5081702;27;45339;-53
2021/09/12 08:13:06;;;;;;;;;11.00;9.67;;;;;20.95;51.69;101340.56;5070047;27;47165;-53
2021/09/12 08:15:32;;;;;;;;;12.25;11.00;;;;;21.00;51.52;101345.72;5066210;27;45292;-53
2021/09/12 08:17:57;;;;;;;;;10.00;10.00;;;;;21.02;51.44;101341.97;5066765;27;45590;-53
2021/09/12 08:20:23;;;;;;;;;8.33;8.33;;;;;21.06;51.26;101345.38;5079297;27;45465;-52
2021/09/12 08:22:48;;;;;;;;;9.00;9.00;;;;;21.07;50.69;101350.69;5061882;27;48331;-52
2021/09/12 08:25:14;;;;;;;;;9.00;8.33;;;;;21.11;51.34;101354.09;5079965;27;46042;-54
2021/09/12 08:27:39;;;;;;;;;6.33;6.33;;;;;21.13;50.70;101355.75;5065098;28;45408;-53
2021/09/12 08:30:06;;;;;;;;;7.00;7.00;;;;;21.17;51.10;101351.91;5080152;27;45533;-50
2021/09/12 08:32:32;;;;;;;;;8.33;7.00;;;;;21.21;50.70;101349.91;5073708;27;45481;-51
2021/09/12 08:34:58;;;;;;;;;7.00;7.00;;;;;21.23;50.82;101355.25;5079611;27;45573;-52
2021/09/12 08:37:23;;;;;;;;;8.00;8.00;;;;;21.27;50.51;101352.31;5073143;27;45247;-47
2021/09/12 08:39:49;;;;;;;;;8.00;8.00;;;;;21.31;50.34;101347.59;5078966;27;45359;-51
2021/09/12 08:42:16;;;;;;;;;8.33;8.33;;;;;21.32;50.10;101352.91;5060995;28;48326;-52
2021/09/12 08:44:47;;;;;;;;;6.00;6.00;;;;;21.35;49.62;101347.38;5073207;28;45811;-56
2021/09/12 08:47:13;;;;;;;;;7.00;5.33;;;;;21.40;49.60;101341.69;5065812;28;45503;-52
2021/09/12 08:49:39;;;;;;;;;5.00;5.00;;;;;21.43;49.67;101350.47;5041203;27;45376;-51
2021/09/12 08:52:05;;;;;;;;;6.33;5.67;;;;;21.46;49.23;101349.44;5065877;27;48339;-51
2021/09/12 08:54:31;;;;;;;;;7.00;6.00;;;;;21.49;49.42;101348.41;5074707;27;45727;-58
2021/09/12 08:56:56;;;;;;;;;8.00;7.00;;;;;21.50;48.99;101342.91;5074159;27;45294;-54
2021/09/12 08:59:27;;;;;;;;;11.00;8.33;;;;;21.55;49.29;101345.34;5074540;28;45650;-55
2021/09/12 09:01:55;;;;;;;;;7.00;6.33;;;;;21.60;49.44;101349.53;5070766;28;48377;-56
2021/09/12 09:04:21;;;;;;;;;8.33;7.00;;;;;21.66;49.24;101343.75;5075011;28;45369;-55
2021/09/12 09:06:46;;;;;;;;;6.00;6.00;;;;;21.70;48.67;101336.34;5068124;28;45511;-54
2021/09/12 09:09:12;;;;;;;;;8.33;7.00;;;;;21.73;48.93;101333.50;5065989;27;45504;-62
2021/09/12 09:11:39;;;;;;;;;5.00;5.00;;;;;21.77;48.95;101336.88;5073288;28;45647;-56
2021/09/12 09:14:20;;;;;;;;;7.67;7.67;;;;;21.81;48.84;101342.00;5068353;28;45472;-55
2021/09/12 09:16:48;;;;;;;;;5.00;5.00;;;;;21.84;48.09;101341.81;5059070;27;45547;-55
2021/09/12 09:19:14;;;;;;;;;5.00;5.00;;;;;21.85;48.77;101334.56;5074266;27;45450;-59
2021/09/12 09:21:45;;;;;;;;;5.67;5.67;;;;;21.88;48.55;101342.53;5069530;27;47371;-59
2021/09/12 09:24:10;;;;;;;;;8.00;6.33;;;;;21.93;48.49;101343.09;5066544;27;46154;-59
2021/09/12 09:26:42;;;;;;;;;4.67;4.67;;;;;21.96;48.62;101345.63;5050971;27;45428;-58
2021/09/12 09:29:08;;;;;;;;;5.00;5.00;;;;;22.01;47.88;101341.72;5076940;27;45244;-59
2021/09/12 09:31:34;;;;;;;;;6.00;6.00;;;;;22.04;47.32;101338.81;5081307;27;47328;-58
2021/09/12 09:34:19;;;;;;;;;5.00;3.33;;;;;22.08;46.93;101352.16;5075449;27;45614;-58
2021/09/12 09:36:48;;;;;;;;;6.00;4.33;;;;;22.08;47.09;101344.06;5057278;28;45785;-58
2021/09/12 09:39:35;;;;;;;;;3.67;3.67;;;;;22.12;47.80;101340.22;5064189;28;45560;-58
2021/09/12 09:42:01;;;;;;;;;5.00;4.67;;;;;22.16;47.42;101344.47;5056735;28;48711;-58
2021/09/12 09:44:27;;;;;;;;;5.33;5.33;;;;;22.20;47.08;101348.72;5069975;28;45511;-57
2021/09/12 09:46:53;;;;;;;;;4.00;4.00;;;;;22.24;46.91;101343.06;5059267;28;45615;-57
2021/09/12 09:49:29;;;;;;;;;4.00;4.00;;;;;22.26;46.44;101340.25;5078651;27;45279;-56
2021/09/12 09:51:59;;;;;;;;;6.00;6.00;;;;;22.26;46.36;101335.72;5059690;28;46120;-57
2021/09/12 09:54:27;;;;;;;;;4.00;4.00;;;;;22.27;46.31;101339.31;5059705;28;45356;-57
2021/09/12 09:56:54;;;;;;;;;4.00;4.00;;;;;22.30;46.11;101336.41;5060145;27;45354;-56
2021/09/12 09:59:22;;;;;;;;;4.67;3.67;;;;;22.31;46.21;101333.59;5080834;27;45621;-53
2021/09/12 10:01:50;;;;;;;;;3.33;3.33;;;;;22.33;46.25;101333.50;5060035;28;48026;-56
2021/09/12 10:04:18;;;;;;;;;4.33;4.33;;;;;22.34;46.13;101327.13;5077771;27;46330;-56
2021/09/12 10:06:45;;;;;;;;;4.00;4.00;;;;;22.36;46.58;101330.63;5067881;28;45470;-57
2021/09/12 10:09:14;;;;;;;;;2.67;2.67;;;;;22.40;46.20;101328.59;5081111;27;45512;-53
2021/09/12 10:11:45;;;;;;;;;6.33;6.33;;;;;22.42;46.25;101324.84;5077018;27;48533;-54
2021/09/12 10:14:14;;;;;;;;;4.00;4.00;;;;;22.45;46.23;101323.78;5077132;27;45449;-55
2021/09/12 10:16:42;;;;;;;;;5.67;3.33;;;;;22.45;46.81;101318.38;5072700;28;46733;-57
2021/09/12 10:19:07;;;;;;;;;4.00;4.00;;;;;22.48;46.11;101312.75;5077809;27;45489;-55
2021/09/12 10:21:33;;;;;;;;;4.00;4.00;;;;;22.49;46.73;101309.97;5076933;28;46979;-53
2021/09/12 10:24:02;;;;;;;;;4.33;4.33;;;;;22.51;46.79;101315.31;5059870;28;45460;-55
2021/09/12 10:26:38;;;;;;;;;4.33;4.33;;;;;22.54;47.26;101310.56;5045395;28;45555;-56
2021/09/12 10:29:04;;;;;;;;;7.33;5.67;;;;;22.58;46.82;101316.63;5052215;28;45479;-55
2021/09/12 10:31:32;;;;;;;;;4.33;4.33;;;;;22.62;46.61;101312.81;5068904;27;48393;-57
2021/09/12 10:34:18;;;;;;;;;4.67;3.33;;;;;22.64;46.70;101304.59;5070093;28;45366;-55
2021/09/12 10:36:44;;;;;;;;;6.67;5.33;;;;;22.65;46.95;101304.47;5068470;27;45480;-54
2021/09/12 10:39:27;;;;;;;;;4.00;4.00;;;;;22.68;46.79;101306.13;5043441;28;45745;-55
2021/09/12 10:42:19;;;;;;;;;5.33;5.00;;;;;22.69;46.54;101297.91;5037085;28;47030;-55
2021/09/12 10:45:05;;;;;;;;;4.67;4.67;;;;;22.70;46.22;101302.34;5069022;27;46235;-57
2021/09/12 10:47:31;;;;;;;;;5.67;5.67;;;;;22.68;46.50;101303.41;5056326;28;45784;-57
2021/09/12 10:49:57;;;;;;;;;6.00;6.00;;;;;22.65;46.28;101296.38;5076600;27;45520;-58
2021/09/12 10:52:44;;;;;;;;;5.00;5.00;;;;;22.65;46.47;101301.78;5071796;27;47766;-57
2021/09/12 10:55:10;;;;;;;;;5.00;5.00;;;;;22.69;46.61;101305.16;5076300;27;45596;-58
2021/09/12 10:57:37;;;;;;;;;6.33;6.33;;;;;22.72;46.87;101307.66;5059120;28;45367;-57
2021/09/12 11:00:07;;;;;;;;;7.00;6.67;;;;;22.75;47.15;101310.19;5058648;28;45781;-55
2021/09/12 11:02:33;;;;;;;;;6.00;6.00;;;;;22.78;46.54;101301.88;5076449;27;47449;-56
2021/09/12 11:04:58;;;;;;;;;5.00;5.00;;;;;22.80;46.13;101305.34;5059596;27;45855;-56
2021/09/12 11:07:24;;;;;;;;;5.67;5.67;;;;;22.83;46.09;101294.34;5082096;27;45413;-61
2021/09/12 11:09:49;;;;;;;;;6.67;5.67;;;;;22.83;46.29;101299.75;5077621;28;45591;-58
2021/09/12 11:12:15;;;;;;;;;8.00;7.00;;;;;22.85;46.33;101293.28;5076053;27;48072;-56
2021/09/12 11:14:40;;;;;;;;;7.00;7.00;;;;;22.89;46.57;101284.03;5077613;28;45315;-57